Time;durP1;ratioP1;P1;durP2;ratioP2;P2;SDS_P1;SDS_P2;PMS_P1;PMS_P2;Temp;Humidity;BMP_temperature;BMP_pressure;BME280_temperature;BME280_humidity;BME280_pressure;Samples;Min_cycle;Max_cycle;Signal;HPM_P1;HPM_P2
2021/07/06 00:00:39;;;;;;;15.27;13.77;;;;;;;;;;5033506;28;20049;-75
2021/07/06 00:03:05;;;;;;;15.10;13.80;;;;;;;;;;5031699;28;20116;-75
2021/07/06 00:05:32;;;;;;;16.23;14.73;;;;;;;;;;5040235;28;20476;-75
2021/07/06 00:07:58;;;;;;;15.65;14.05;;;;;;;;;;5012521;28;20489;-75
2021/07/06 00:10:25;;;;;;;14.77;13.32;;;;;;;;;;5046305;28;20033;-75
2021/07/06 00:12:52;;;;;;;15.52;14.00;;;;;;;;;;5032859;28;20087;-75
2021/07/06 00:15:23;;;;;;;14.90;13.45;;;;;;;;;;5045653;28;20032;-75
2021/07/06 00:17:50;;;;;;;16.80;13.82;;;;;;;;;;5031877;28;20033;-75
2021/07/06 00:20:17;;;;;;;13.07;11.80;;;;;;;;;;5046377;28;20045;-75
2021/07/06 00:22:43;;;;;;;12.60;11.40;;;;;;;;;;5032264;28;20090;-75
2021/07/06 00:25:10;;;;;;;14.48;12.23;;;;;;;;;;5042481;28;20060;-75
2021/07/06 00:27:36;;;;;;;13.85;12.18;;;;;;;;;;5028854;28;20125;-74
2021/07/06 00:30:03;;;;;;;13.52;12.13;;;;;;;;;;5044031;28;20427;-75
2021/07/06 00:32:30;;;;;;;13.48;12.13;;;;;;;;;;5039080;28;20373;-74
2021/07/06 00:34:56;;;;;;;13.30;11.90;;;;;;;;;;5030314;28;20430;-75
2021/07/06 00:37:22;;;;;;;12.88;11.48;;;;;;;;;;5014837;28;20487;-75
2021/07/06 00:39:48;;;;;;;14.00;12.50;;;;;;;;;;5045727;28;20045;-76
2021/07/06 00:42:14;;;;;;;14.73;11.68;;;;;;;;;;5045450;28;20116;-75
2021/07/06 00:44:40;;;;;;;12.68;11.63;;;;;;;;;;5022943;28;20465;-75
2021/07/06 00:47:07;;;;;;;121.93;107.63;;;;;;;;;;5023208;28;20136;-75
2021/07/06 00:49:33;;;;;;;14.63;11.80;;;;;;;;;;5033326;28;20037;-76
2021/07/06 00:52:00;;;;;;;12.32;11.20;;;;;;;;;;5036560;28;20053;-76
2021/07/06 00:54:26;;;;;;;12.00;10.65;;;;;;;;;;5030067;28;20147;-75
2021/07/06 00:56:53;;;;;;;11.93;10.80;;;;;;;;;;5035825;28;20444;-75
2021/07/06 00:59:21;;;;;;;12.85;10.68;;;;;;;;;;5030860;28;20063;-75
2021/07/06 01:01:48;;;;;;;13.80;10.77;;;;;;;;;;5028514;28;20041;-75
2021/07/06 01:04:14;;;;;;;11.43;10.32;;;;;;;;;;5032940;28;20042;-75
2021/07/06 01:06:40;;;;;;;12.50;11.20;;;;;;;;;;5034680;28;20034;-75
2021/07/06 01:09:06;;;;;;;11.43;10.35;;;;;;;;;;5031647;28;20025;-75
2021/07/06 01:11:34;;;;;;;11.48;10.15;;;;;;;;;;5023914;28;20455;-75
2021/07/06 01:14:01;;;;;;;11.15;9.98;;;;;;;;;;5037082;28;20412;-75
2021/07/06 01:16:27;;;;;;;10.38;9.32;;;;;;;;;;5041316;28;20033;-75
2021/07/06 01:18:53;;;;;;;10.90;9.77;;;;;;;;;;5031009;28;20103;-75
2021/07/06 01:21:19;;;;;;;10.77;9.70;;;;;;;;;;5045063;28;20451;-75
2021/07/06 01:23:46;;;;;;;10.60;9.68;;;;;;;;;;5041742;28;20037;-75
2021/07/06 01:26:12;;;;;;;11.23;9.70;;;;;;;;;;5037958;28;20484;-75
2021/07/06 01:28:41;;;;;;;10.60;9.65;;;;;;;;;;5042625;28;20033;-75
2021/07/06 01:31:07;;;;;;;11.05;9.52;;;;;;;;;;5041976;28;20030;-75
2021/07/06 01:33:38;;;;;;;11.45;9.02;;;;;;;;;;5037347;28;20048;-75
2021/07/06 01:36:07;;;;;;;10.35;9.27;;;;;;;;;;5030810;28;20040;-76
2021/07/06 01:38:34;;;;;;;10.50;9.40;;;;;;;;;;5034866;28;20037;-76
2021/07/06 01:41:00;;;;;;;9.85;8.80;;;;;;;;;;5039071;28;20091;-76
2021/07/06 01:43:27;;;;;;;9.48;8.57;;;;;;;;;;5041025;28;20477;-76
2021/07/06 01:45:53;;;;;;;11.27;8.70;;;;;;;;;;5033660;28;20032;-76
2021/07/06 01:48:19;;;;;;;9.48;8.55;;;;;;;;;;5039556;28;20044;-76
2021/07/06 01:50:45;;;;;;;11.00;8.88;;;;;;;;;;5035588;28;20129;-76
2021/07/06 01:53:14;;;;;;;12.10;8.75;;;;;;;;;;5039915;28;20069;-75
2021/07/06 01:55:45;;;;;;;10.45;7.97;;;;;;;;;;5029116;28;20037;-75
2021/07/06 01:58:13;;;;;;;10.15;8.57;;;;;;;;;;5037653;28;20428;-75
2021/07/06 02:00:41;;;;;;;9.52;8.45;;;;;;;;;;5036074;28;20032;-75
2021/07/06 02:03:07;;;;;;;8.52;7.63;;;;;;;;;;5026725;28;20468;-75
2021/07/06 02:05:34;;;;;;;9.00;8.02;;;;;;;;;;5036610;28;20038;-75
2021/07/06 02:08:01;;;;;;;8.82;7.63;;;;;;;;;;5012847;28;20083;-75
2021/07/06 02:10:28;;;;;;;8.70;7.90;;;;;;;;;;5037029;28;20029;-75
2021/07/06 02:12:55;;;;;;;8.55;7.75;;;;;;;;;;5025387;28;20091;-75
2021/07/06 02:15:21;;;;;;;8.52;7.63;;;;;;;;;;5048320;28;20060;-75
2021/07/06 02:17:47;;;;;;;8.85;7.40;;;;;;;;;;5029043;28;20052;-75
2021/07/06 02:20:15;;;;;;;8.52;7.63;;;;;;;;;;5041923;28;20037;-75
2021/07/06 02:22:43;;;;;;;8.75;7.88;;;;;;;;;;5040275;28;20626;-75
2021/07/06 02:25:10;;;;;;;8.65;7.72;;;;;;;;;;5036139;28;20041;-75
2021/07/06 02:27:36;;;;;;;9.00;7.65;;;;;;;;;;5037174;28;20404;-75
2021/07/06 02:30:05;;;;;;;8.55;7.75;;;;;;;;;;5034334;28;20435;-75
2021/07/06 02:32:31;;;;;;;9.15;7.40;;;;;;;;;;5033062;28;20044;-75
2021/07/06 02:34:57;;;;;;;8.98;8.07;;;;;;;;;;5036560;28;20034;-75
2021/07/06 02:37:23;;;;;;;10.13;7.45;;;;;;;;;;5038912;28;20552;-75
2021/07/06 02:39:49;;;;;;;8.70;7.50;;;;;;;;;;5044639;28;20029;-75
2021/07/06 02:42:16;;;;;;;9.88;7.45;;;;;;;;;;5036366;28;20041;-75
2021/07/06 02:44:42;;;;;;;7.68;6.97;;;;;;;;;;5039954;28;20422;-75
2021/07/06 02:47:08;;;;;;;10.38;7.38;;;;;;;;;;5034410;28;20056;-75
2021/07/06 02:49:37;;;;;;;8.02;7.28;;;;;;;;;;5040154;28;20047;-75
2021/07/06 02:52:03;;;;;;;9.80;7.53;;;;;;;;;;5044893;28;20048;-75
2021/07/06 02:54:29;;;;;;;7.90;7.10;;;;;;;;;;5030067;28;20106;-75
2021/07/06 02:56:56;;;;;;;8.57;6.95;;;;;;;;;;5042039;28;20116;-75
2021/07/06 02:59:22;;;;;;;7.32;6.53;;;;;;;;;;5032764;28;20052;-75
2021/07/06 03:01:49;;;;;;;7.75;7.05;;;;;;;;;;5035585;28;20373;-75
2021/07/06 03:04:15;;;;;;;7.40;6.70;;;;;;;;;;5029559;28;20043;-75
2021/07/06 03:06:41;;;;;;;7.65;6.85;;;;;;;;;;5034827;28;20061;-75
2021/07/06 03:09:07;;;;;;;7.65;6.82;;;;;;;;;;5032734;28;20060;-75
2021/07/06 03:11:33;;;;;;;8.82;7.22;;;;;;;;;;5034353;28;20041;-76
2021/07/06 03:14:00;;;;;;;6.97;6.38;;;;;;;;;;5014959;28;20038;-76
2021/07/06 03:16:26;;;;;;;7.68;6.95;;;;;;;;;;5027574;28;20044;-76
2021/07/06 03:18:52;;;;;;;7.70;7.00;;;;;;;;;;5036077;28;20037;-76
2021/07/06 03:21:19;;;;;;;7.32;6.60;;;;;;;;;;5023329;28;20394;-76
2021/07/06 03:23:45;;;;;;;8.48;7.32;;;;;;;;;;5036363;28;20087;-75
2021/07/06 03:26:11;;;;;;;8.90;6.32;;;;;;;;;;5039622;28;20470;-75
2021/07/06 03:28:38;;;;;;;7.55;6.85;;;;;;;;;;5019756;28;20096;-75
2021/07/06 03:31:04;;;;;;;8.20;6.25;;;;;;;;;;5027662;28;20044;-75
2021/07/06 03:33:36;;;;;;;8.07;7.32;;;;;;;;;;5033148;28;20471;-75
2021/07/06 03:36:02;;;;;;;7.47;6.78;;;;;;;;;;5012703;28;20141;-75
2021/07/06 03:38:29;;;;;;;6.85;6.25;;;;;;;;;;5034667;28;20037;-75
2021/07/06 03:40:55;;;;;;;8.52;6.43;;;;;;;;;;5014329;28;20467;-75
2021/07/06 03:43:21;;;;;;;7.65;6.70;;;;;;;;;;5026760;28;20055;-76
2021/07/06 03:45:47;;;;;;;9.07;6.25;;;;;;;;;;5030411;28;20045;-76
2021/07/06 03:48:13;;;;;;;7.47;5.97;;;;;;;;;;5018223;28;20567;-76
2021/07/06 03:50:39;;;;;;;8.07;5.65;;;;;;;;;;5030693;28;20091;-76
2021/07/06 03:53:07;;;;;;;9.13;5.90;;;;;;;;;;5033957;28;20116;-76
2021/07/06 03:55:33;;;;;;;7.03;5.50;;;;;;;;;;5026640;28;20037;-76
2021/07/06 03:57:59;;;;;;;6.47;5.53;;;;;;;;;;5028967;28;20563;-76
2021/07/06 04:00:28;;;;;;;6.07;5.57;;;;;;;;;;5032485;28;20049;-76
2021/07/06 04:02:55;;;;;;;8.07;5.32;;;;;;;;;;5034331;28;20285;-76
2021/07/06 04:05:21;;;;;;;7.07;4.95;;;;;;;;;;5018797;28;20132;-76
2021/07/06 04:07:48;;;;;;;5.35;4.85;;;;;;;;;;5037779;28;20493;-76
2021/07/06 04:10:18;;;;;;;5.65;5.05;;;;;;;;;;5018235;28;20057;-76
2021/07/06 04:12:45;;;;;;;6.68;5.28;;;;;;;;;;5028508;28;20389;-75
2021/07/06 04:15:12;;;;;;;5.55;4.50;;;;;;;;;;5037086;28;20079;-75
2021/07/06 04:17:39;;;;;;;5.88;4.05;;;;;;;;;;5018853;28;20077;-76
2021/07/06 04:20:07;;;;;;;5.93;4.38;;;;;;;;;;5036375;28;20050;-76
2021/07/06 04:22:33;;;;;;;4.38;3.97;;;;;;;;;;5009440;28;20041;-76
2021/07/06 04:24:59;;;;;;;4.60;3.47;;;;;;;;;;5044632;28;20043;-76
2021/07/06 04:27:26;;;;;;;6.10;3.30;;;;;;;;;;5029456;28;20114;-76
2021/07/06 04:29:52;;;;;;;5.88;3.47;;;;;;;;;;5037733;28;20045;-76
2021/07/06 04:32:18;;;;;;;4.70;3.08;;;;;;;;;;5026964;28;20029;-76
2021/07/06 04:34:45;;;;;;;4.68;3.45;;;;;;;;;;5015537;28;20037;-76
2021/07/06 04:37:14;;;;;;;24.77;21.00;;;;;;;;;;5027995;28;20030;-75
2021/07/06 04:39:40;;;;;;;4.13;2.90;;;;;;;;;;5031351;28;20108;-76
2021/07/06 04:42:07;;;;;;;3.92;2.55;;;;;;;;;;5008416;28;20041;-76
2021/07/06 04:44:33;;;;;;;3.35;2.40;;;;;;;;;;5038353;28;20033;-76
2021/07/06 04:46:59;;;;;;;4.60;2.38;;;;;;;;;;5019761;28;20366;-76
2021/07/06 04:49:28;;;;;;;2.17;1.60;;;;;;;;;;5037693;28;20432;-76
2021/07/06 04:51:54;;;;;;;3.17;1.73;;;;;;;;;;5023181;28;20049;-75
2021/07/06 04:54:23;;;;;;;2.28;1.58;;;;;;;;;;5022710;28;20053;-75
2021/07/06 04:56:51;;;;;;;3.97;2.00;;;;;;;;;;5044134;28;20033;-76
2021/07/06 04:59:18;;;;;;;3.65;1.50;;;;;;;;;;5039338;28;20037;-75
2021/07/06 05:01:44;;;;;;;3.28;1.90;;;;;;;;;;5045451;28;20052;-75
2021/07/06 05:04:11;;;;;;;5.47;1.40;;;;;;;;;;5036116;28;20037;-75
2021/07/06 05:06:37;;;;;;;3.08;1.40;;;;;;;;;;5043588;28;20481;-75
2021/07/06 05:09:03;;;;;;;3.22;1.40;;;;;;;;;;5040981;28;20033;-76
2021/07/06 05:11:29;;;;;;;1.92;1.45;;;;;;;;;;5044604;28;20444;-76
2021/07/06 05:13:55;;;;;;;2.53;1.20;;;;;;;;;;5034308;28;20518;-76
2021/07/06 05:16:21;;;;;;;3.42;1.10;;;;;;;;;;5026574;28;20044;-76
2021/07/06 05:18:47;;;;;;;3.15;1.10;;;;;;;;;;5034227;28;20038;-76
2021/07/06 05:21:16;;;;;;;2.47;1.02;;;;;;;;;;5046486;28;20055;-77
2021/07/06 05:23:42;;;;;;;2.63;0.98;;;;;;;;;;5034868;28;20041;-76
2021/07/06 05:26:08;;;;;;;4.82;1.27;;;;;;;;;;5043116;28;20037;-76
2021/07/06 05:28:34;;;;;;;2.17;1.00;;;;;;;;;;5020212;28;20051;-74
2021/07/06 05:31:03;;;;;;;2.38;1.00;;;;;;;;;;5034987;28;20044;-76
2021/07/06 05:33:29;;;;;;;3.42;0.90;;;;;;;;;;5035134;28;20038;-76
2021/07/06 05:35:55;;;;;;;2.90;0.82;;;;;;;;;;5037039;28;20060;-76
2021/07/06 05:38:22;;;;;;;2.15;1.00;;;;;;;;;;5038595;28;20056;-76
2021/07/06 05:40:54;;;;;;;2.58;0.80;;;;;;;;;;5031377;28;20044;-76
2021/07/06 05:43:21;;;;;;;2.40;1.10;;;;;;;;;;5047261;28;20035;-75
2021/07/06 05:45:50;;;;;;;1.90;0.98;;;;;;;;;;5020917;28;20060;-75
2021/07/06 05:48:17;;;;;;;1.88;0.75;;;;;;;;;;5033315;28;20475;-75
2021/07/06 05:50:43;;;;;;;2.55;0.75;;;;;;;;;;5035447;28;20055;-75
2021/07/06 05:53:10;;;;;;;16.30;2.75;;;;;;;;;;5038354;28;20162;-68
2021/07/06 05:55:37;;;;;;;6.40;2.22;;;;;;;;;;5018893;28;20033;-68
2021/07/06 05:58:03;;;;;;;6.07;2.15;;;;;;;;;;5043948;28;20036;-68
2021/07/06 06:00:29;;;;;;;7.35;2.72;;;;;;;;;;5038120;28;20036;-68
2021/07/06 06:02:56;;;;;;;4.30;2.47;;;;;;;;;;5038614;28;20136;-68
2021/07/06 06:05:22;;;;;;;5.78;2.70;;;;;;;;;;5039287;28;20040;-68
2021/07/06 06:07:49;;;;;;;6.10;3.00;;;;;;;;;;5046432;28;20128;-68
2021/07/06 06:10:15;;;;;;;3.97;2.58;;;;;;;;;;5037298;28;20037;-69
2021/07/06 06:12:42;;;;;;;6.85;2.67;;;;;;;;;;5042716;28;20112;-69
2021/07/06 06:15:09;;;;;;;4.78;2.40;;;;;;;;;;5045351;28;20025;-69
2021/07/06 06:17:36;;;;;;;3.42;2.47;;;;;;;;;;5035351;28;20112;-70
2021/07/06 06:20:04;;;;;;;7.40;3.45;;;;;;;;;;5040285;28;20076;-70
2021/07/06 06:22:30;;;;;;;3.83;2.97;;;;;;;;;;5030838;28;20037;-70
2021/07/06 06:24:56;;;;;;;4.57;3.78;;;;;;;;;;5036426;28;20044;-70
2021/07/06 06:27:22;;;;;;;4.75;2.83;;;;;;;;;;5027069;28;20446;-70
2021/07/06 06:29:48;;;;;;;4.57;2.80;;;;;;;;;;5035657;28;20064;-70
2021/07/06 06:32:16;;;;;;;7.57;3.60;;;;;;;;;;5016122;28;20053;-71
2021/07/06 06:34:42;;;;;;;8.68;3.60;;;;;;;;;;5036925;28;20112;-71
2021/07/06 06:37:08;;;;;;;3.80;3.22;;;;;;;;;;5029618;28;20041;-71
2021/07/06 06:39:35;;;;;;;4.60;2.70;;;;;;;;;;5034511;28;20037;-71
2021/07/06 06:42:01;;;;;;;4.15;3.75;;;;;;;;;;5030439;28;20044;-71
2021/07/06 06:44:27;;;;;;;5.38;2.78;;;;;;;;;;5038114;28;20041;-71
2021/07/06 06:46:53;;;;;;;3.88;3.17;;;;;;;;;;5008961;28;25663;-71
2021/07/06 06:49:19;;;;;;;5.35;3.63;;;;;;;;;;5037224;28;20037;-71
2021/07/06 06:51:45;;;;;;;5.20;2.65;;;;;;;;;;5030004;28;20434;-71
2021/07/06 06:54:12;;;;;;;5.10;3.65;;;;;;;;;;5037042;28;20073;-71
2021/07/06 06:56:40;;;;;;;7.43;3.83;;;;;;;;;;5036939;28;20037;-71
2021/07/06 06:59:07;;;;;;;5.90;4.05;;;;;;;;;;5028592;28;20042;-71
2021/07/06 07:01:33;;;;;;;6.93;3.83;;;;;;;;;;5040354;28;20040;-71
2021/07/06 07:04:00;;;;;;;5.60;3.45;;;;;;;;;;5031011;28;20566;-71
2021/07/06 07:06:26;;;;;;;6.95;3.00;;;;;;;;;;5035401;28;20038;-71
2021/07/06 07:08:52;;;;;;;4.63;3.15;;;;;;;;;;5036865;28;20045;-71
2021/07/06 07:11:18;;;;;;;6.90;3.28;;;;;;;;;;5026484;28;20480;-71
2021/07/06 07:13:44;;;;;;;4.38;2.50;;;;;;;;;;5013325;28;20053;-71
2021/07/06 07:16:10;;;;;;;4.93;3.50;;;;;;;;;;5032575;28;20037;-71
2021/07/06 07:18:37;;;;;;;6.05;2.88;;;;;;;;;;5033903;28;20036;-71
2021/07/06 07:21:03;;;;;;;4.63;3.08;;;;;;;;;;5033782;28;20519;-71
2021/07/06 07:23:29;;;;;;;4.30;2.85;;;;;;;;;;5028634;28;20052;-71
2021/07/06 07:25:55;;;;;;;3.88;2.50;;;;;;;;;;5034572;28;20045;-71
2021/07/06 07:28:21;;;;;;;5.50;3.28;;;;;;;;;;5014584;28;20540;-71
2021/07/06 07:30:47;;;;;;;5.88;2.45;;;;;;;;;;5040519;28;20045;-71
2021/07/06 07:33:13;;;;;;;6.65;2.22;;;;;;;;;;5040311;28;20041;-71
2021/07/06 07:35:40;;;;;;;6.53;3.35;;;;;;;;;;5031598;28;20029;-71
2021/07/06 07:38:06;;;;;;;4.13;2.03;;;;;;;;;;5016386;28;20042;-72
2021/07/06 07:40:32;;;;;;;5.85;2.67;;;;;;;;;;5019198;28;20099;-72
2021/07/06 07:43:05;;;;;;;5.55;3.00;;;;;;;;;;5034542;28;20041;-71
2021/07/06 07:45:31;;;;;;;3.85;1.73;;;;;;;;;;5030802;28;20034;-71
2021/07/06 07:47:58;;;;;;;6.50;2.60;;;;;;;;;;5032476;28;20477;-71
2021/07/06 07:50:24;;;;;;;4.22;2.40;;;;;;;;;;5028495;28;20033;-72
2021/07/06 07:52:50;;;;;;;5.28;2.65;;;;;;;;;;5036736;28;20099;-71
2021/07/06 07:55:16;;;;;;;3.85;2.65;;;;;;;;;;5021664;28;20190;-72
2021/07/06 07:57:42;;;;;;;4.07;2.25;;;;;;;;;;5041452;28;20092;-71
2021/07/06 08:00:09;;;;;;;5.40;2.30;;;;;;;;;;5035423;28;20122;-71
2021/07/06 08:02:35;;;;;;;3.00;1.65;;;;;;;;;;5042260;28;20044;-71
2021/07/06 08:05:02;;;;;;;4.53;1.85;;;;;;;;;;5014079;28;20501;-71
2021/07/06 08:07:30;;;;;;;4.30;2.65;;;;;;;;;;5024039;28;20043;-71
2021/07/06 08:09:56;;;;;;;5.25;1.52;;;;;;;;;;5034371;28;20065;-72
2021/07/06 08:12:22;;;;;;;4.82;2.08;;;;;;;;;;5022478;28;20060;-72
2021/07/06 08:14:50;;;;;;;3.10;1.70;;;;;;;;;;5040156;28;20112;-72
2021/07/06 08:17:17;;;;;;;4.30;1.80;;;;;;;;;;5038251;28;20045;-72
2021/07/06 08:19:43;;;;;;;3.50;1.60;;;;;;;;;;5037091;28;20037;-72
2021/07/06 08:22:09;;;;;;;6.07;1.80;;;;;;;;;;5018270;28;20049;-73
2021/07/06 08:24:36;;;;;;;5.90;1.83;;;;;;;;;;5041048;28;20072;-73
2021/07/06 08:27:03;;;;;;;2.63;1.60;;;;;;;;;;5031683;28;20496;-73
2021/07/06 08:29:31;;;;;;;5.35;1.95;;;;;;;;;;5042280;28;20034;-73
2021/07/06 08:31:57;;;;;;;2.30;1.92;;;;;;;;;;5036137;28;20040;-73
2021/07/06 08:34:23;;;;;;;3.10;1.73;;;;;;;;;;5026801;28;20488;-72
2021/07/06 08:36:49;;;;;;;4.07;1.65;;;;;;;;;;5018583;28;20550;-72
2021/07/06 08:39:16;;;;;;;2.50;1.50;;;;;;;;;;5042253;28;20068;-72
2021/07/06 08:41:42;;;;;;;4.75;1.85;;;;;;;;;;5012718;28;20532;-72
2021/07/06 08:44:08;;;;;;;4.18;1.98;;;;;;;;;;5039378;28;20086;-72
2021/07/06 08:46:36;;;;;;;2.95;2.30;;;;;;;;;;5016638;28;20042;-72
2021/07/06 08:49:04;;;;;;;2.88;1.65;;;;;;;;;;5023447;28;20493;-72
2021/07/06 08:51:31;;;;;;;1.70;1.25;;;;;;;;;;5036026;28;20436;-72
2021/07/06 08:53:58;;;;;;;2.70;1.00;;;;;;;;;;5041632;28;20045;-73
2021/07/06 08:56:24;;;;;;;2.75;1.40;;;;;;;;;;5029468;28;20073;-72
2021/07/06 08:58:52;;;;;;;3.22;1.00;;;;;;;;;;5033711;28;20030;-72
2021/07/06 09:01:25;;;;;;;2.85;1.35;;;;;;;;;;5044571;28;20037;-72
2021/07/06 09:03:59;;;;;;;4.20;1.02;;;;;;;;;;5018744;28;20040;-73
2021/07/06 09:06:29;;;;;;;4.15;1.13;;;;;;;;;;5040084;28;20041;-74
2021/07/06 09:09:14;;;;;;;4.32;1.10;;;;;;;;;;5030436;28;20444;-74
2021/07/06 09:11:44;;;;;;;2.53;0.93;;;;;;;;;;5033877;28;20038;-73
2021/07/06 09:14:11;;;;;;;2.15;0.73;;;;;;;;;;5032525;28;20172;-75
2021/07/06 09:16:37;;;;;;;2.50;0.80;;;;;;;;;;5017552;28;20107;-74
2021/07/06 09:19:16;;;;;;;3.03;0.98;;;;;;;;;;5010592;28;20033;-74
2021/07/06 09:21:42;;;;;;;3.28;0.70;;;;;;;;;;5040139;28;20285;-73
2021/07/06 09:24:20;;;;;;;1.45;0.70;;;;;;;;;;5009701;28;20061;-73
2021/07/06 09:26:47;;;;;;;2.83;0.82;;;;;;;;;;5033338;28;20041;-75
2021/07/06 09:29:16;;;;;;;4.03;0.70;;;;;;;;;;5028998;28;20029;-75
2021/07/06 09:31:43;;;;;;;1.63;0.70;;;;;;;;;;5034839;28;20302;-74
2021/07/06 09:34:10;;;;;;;1.27;0.57;;;;;;;;;;5024146;28;20115;-74
2021/07/06 09:36:36;;;;;;;2.78;1.73;;;;;;;;;;5026080;28;20463;-76
2021/07/06 09:39:09;;;;;;;10.23;5.85;;;;;;;;;;5030934;28;20087;-76
2021/07/06 09:41:35;;;;;;;1.88;0.65;;;;;;;;;;5036686;28;20492;-76
2021/07/06 09:44:14;;;;;;;2.15;0.47;;;;;;;;;;5032778;28;20109;-76
2021/07/06 09:46:51;;;;;;;1.77;0.50;;;;;;;;;;5029790;28;20143;-76
2021/07/06 09:49:19;;;;;;;2.35;0.50;;;;;;;;;;5035660;28;20471;-75
2021/07/06 09:51:46;;;;;;;2.53;0.50;;;;;;;;;;5047756;28;20549;-76
2021/07/06 09:54:23;;;;;;;1.35;0.40;;;;;;;;;;5039925;28;20523;-76
2021/07/06 09:56:51;;;;;;;2.58;0.47;;;;;;;;;;5026619;28;20049;-76
2021/07/06 09:59:37;;;;;;;3.50;0.60;;;;;;;;;;5006121;28;20037;-76
2021/07/06 10:02:04;;;;;;;2.30;0.47;;;;;;;;;;5036212;28;20382;-76
2021/07/06 10:04:32;;;;;;;3.70;0.47;;;;;;;;;;5032431;28;20175;-76
2021/07/06 10:07:00;;;;;;;3.00;0.80;;;;;;;;;;5029131;28;20148;-75
2021/07/06 10:09:27;;;;;;;3.30;0.60;;;;;;;;;;5036614;28;20764;-76
2021/07/06 10:11:55;;;;;;;1.58;0.50;;;;;;;;;;5034439;28;20477;-76
2021/07/06 10:14:21;;;;;;;7.13;0.60;;;;;;;;;;5047390;28;20462;-75
2021/07/06 10:16:47;;;;;;;2.60;0.60;;;;;;;;;;5022523;28;20049;-76
2021/07/06 10:19:14;;;;;;;1.25;0.30;;;;;;;;;;5040049;28;20032;-77
2021/07/06 10:21:40;;;;;;;2.90;0.30;;;;;;;;;;5011896;28;20395;-77
2021/07/06 10:24:07;;;;;;;1.85;0.30;;;;;;;;;;5048691;28;20025;-78
2021/07/06 10:26:34;;;;;;;4.22;0.43;;;;;;;;;;5034011;28;20116;-78
2021/07/06 10:29:02;;;;;;;3.45;0.43;;;;;;;;;;5026404;28;20532;-78
2021/07/06 10:31:29;;;;;;;1.70;0.50;;;;;;;;;;5042143;28;20037;-79
2021/07/06 10:33:55;;;;;;;1.98;0.40;;;;;;;;;;5037391;28;20057;-79
2021/07/06 10:36:38;;;;;;;2.88;0.50;;;;;;;;;;5035924;28;20029;-79
2021/07/06 10:39:06;;;;;;;1.30;0.40;;;;;;;;;;5047876;28;20047;-79
2021/07/06 10:41:35;;;;;;;1.98;0.45;;;;;;;;;;5032754;28;20044;-80
2021/07/06 10:44:02;;;;;;;2.28;0.40;;;;;;;;;;5021370;28;20115;-79
2021/07/06 10:46:37;;;;;;;4.80;0.60;;;;;;;;;;5032632;28;20041;-80
2021/07/06 10:49:15;;;;;;;2.90;0.60;;;;;;;;;;5036508;28;20037;-79
2021/07/06 10:51:41;;;;;;;4.93;0.50;;;;;;;;;;5026474;28;20361;-79
2021/07/06 10:54:16;;;;;;;2.55;0.50;;;;;;;;;;5025419;28;20049;-79
2021/07/06 10:56:47;;;;;;;2.95;0.60;;;;;;;;;;5040884;28;20029;-80
2021/07/06 10:59:36;;;;;;;3.80;0.88;;;;;;;;;;5038582;28;20116;-79
2021/07/06 11:02:02;;;;;;;4.22;0.80;;;;;;;;;;5029576;28;20040;-79
2021/07/06 11:04:42;;;;;;;2.20;0.45;;;;;;;;;;5024127;28;20071;-79
2021/07/06 11:07:11;;;;;;;2.35;0.47;;;;;;;;;;5033548;28;20063;-78
2021/07/06 11:09:37;;;;;;;4.57;0.75;;;;;;;;;;5020952;28;20046;-78
2021/07/06 11:12:18;;;;;;;2.97;0.57;;;;;;;;;;5031681;28;20380;-78
2021/07/06 11:14:49;;;;;;;0.85;0.30;;;;;;;;;;5037057;28;20110;-79
2021/07/06 11:17:31;;;;;;;3.53;0.40;;;;;;;;;;5034357;28;20048;-79
2021/07/06 11:19:58;;;;;;;2.65;0.68;;;;;;;;;;5045963;28;20037;-80
2021/07/06 11:22:39;;;;;;;2.08;0.60;;;;;;;;;;5021925;28;22943;-79
2021/07/06 11:25:21;;;;;;;1.98;0.60;;;;;;;;;;5043822;28;20473;-79
2021/07/06 11:28:07;;;;;;;3.10;0.40;;;;;;;;;;5020175;28;20061;-79
2021/07/06 11:30:44;;;;;;;2.25;0.25;;;;;;;;;;5028202;28;20045;-79
2021/07/06 11:33:11;;;;;;;1.10;0.35;;;;;;;;;;5037665;28;20094;-79
2021/07/06 11:35:39;;;;;;;3.42;0.30;;;;;;;;;;5023684;28;20480;-79
2021/07/06 11:38:07;;;;;;;3.38;0.70;;;;;;;;;;5032050;28;20029;-79
2021/07/06 11:40:33;;;;;;;3.08;0.25;;;;;;;;;;5041483;28;20376;-78
2021/07/06 11:43:00;;;;;;;3.60;0.50;;;;;;;;;;5039462;28;20468;-78
2021/07/06 11:45:26;;;;;;;5.53;0.93;;;;;;;;;;5043904;28;20037;-78
2021/07/06 11:48:05;;;;;;;2.08;0.43;;;;;;;;;;5037621;28;20041;-78
2021/07/06 11:50:32;;;;;;;1.83;0.47;;;;;;;;;;5031320;28;20374;-78
2021/07/06 11:52:59;;;;;;;2.10;0.30;;;;;;;;;;5023837;28;20056;-78
2021/07/06 11:55:26;;;;;;;3.10;0.32;;;;;;;;;;5028235;28;20404;-78
2021/07/06 11:57:56;;;;;;;5.78;0.50;;;;;;;;;;5036921;28;20069;-77
2021/07/06 12:00:23;;;;;;;1.30;0.40;;;;;;;;;;5025399;28;20469;-77
2021/07/06 12:02:49;;;;;;;2.85;0.40;;;;;;;;;;5023966;28;20155;-77
2021/07/06 12:05:17;;;;;;;3.45;0.77;;;;;;;;;;5031597;28;20083;-77
2021/07/06 12:07:44;;;;;;;3.30;0.47;;;;;;;;;;5031771;28;20393;-76
2021/07/06 12:10:11;;;;;;;3.63;0.50;;;;;;;;;;5033590;28;20029;-76
2021/07/06 12:12:37;;;;;;;4.95;0.40;;;;;;;;;;5036907;28;20116;-77
2021/07/06 12:15:05;;;;;;;4.55;0.50;;;;;;;;;;5018052;28;20106;-76
2021/07/06 12:17:31;;;;;;;3.45;0.50;;;;;;;;;;5032423;28;20033;-76
2021/07/06 12:19:58;;;;;;;2.40;0.47;;;;;;;;;;5036583;28;20030;-76
2021/07/06 12:22:25;;;;;;;1.38;0.30;;;;;;;;;;5033774;28;20428;-76
2021/07/06 12:24:53;;;;;;;8.10;0.55;;;;;;;;;;5031365;28;20029;-76
2021/07/06 12:27:19;;;;;;;2.08;0.50;;;;;;;;;;5045983;28;20044;-75
2021/07/06 12:29:54;;;;;;;4.38;0.60;;;;;;;;;;5038394;28;20381;-75
2021/07/06 12:32:20;;;;;;;3.50;0.38;;;;;;;;;;5020273;28;20133;-71
2021/07/06 12:34:53;;;;;;;7.70;0.63;;;;;;;;;;5036687;28;20038;-71
2021/07/06 12:37:21;;;;;;;3.40;0.30;;;;;;;;;;5028540;28;20469;-71
2021/07/06 12:39:47;;;;;;;2.38;0.40;;;;;;;;;;5022589;28;20103;-71
2021/07/06 12:42:20;;;;;;;4.38;0.50;;;;;;;;;;5030380;28;20072;-71
2021/07/06 12:44:46;;;;;;;;;;;;;;;;;;5043533;28;20108;-71
2021/07/06 12:47:17;;;;;;;3.65;0.50;;;;;;;;;;5038474;28;19967;-71
2021/07/06 12:49:48;;;;;;;6.65;0.52;;;;;;;;;;5035952;28;20053;-71
2021/07/06 12:52:15;;;;;;;2.53;0.57;;;;;;;;;;5028618;28;20055;-71
2021/07/06 12:54:42;;;;;;;3.90;0.80;;;;;;;;;;5033418;28;20527;-72
2021/07/06 12:57:12;;;;;;;4.60;0.68;;;;;;;;;;5031838;28;20411;-71
2021/07/06 12:59:38;;;;;;;4.70;0.55;;;;;;;;;;5035930;28;20056;-71
2021/07/06 13:02:18;;;;;;;5.38;0.85;;;;;;;;;;5035537;28;20474;-71
2021/07/06 13:04:48;;;;;;;5.28;0.80;;;;;;;;;;5032211;28;20385;-71
2021/07/06 13:07:14;;;;;;;5.72;0.63;;;;;;;;;;5035673;28;20037;-71
2021/07/06 13:09:41;;;;;;;8.15;0.88;;;;;;;;;;5042683;28;20042;-70
2021/07/06 13:12:13;;;;;;;5.20;0.90;;;;;;;;;;5031567;28;20042;-71
2021/07/06 13:14:39;;;;;;;14.88;1.60;;;;;;;;;;5037376;28;20710;-71
2021/07/06 13:17:24;;;;;;;5.90;0.50;;;;;;;;;;5042247;28;20037;-71
2021/07/06 13:19:57;;;;;;;3.97;0.50;;;;;;;;;;5045012;28;20033;-71
2021/07/06 13:22:24;;;;;;;5.07;0.50;;;;;;;;;;5040727;28;20115;-71
2021/07/06 13:24:50;;;;;;;4.95;0.50;;;;;;;;;;5029074;28;20055;-72
2021/07/06 13:27:16;;;;;;;4.45;0.55;;;;;;;;;;5022203;28;20124;-71
2021/07/06 13:29:42;;;;;;;2.30;0.47;;;;;;;;;;5045317;28;20100;-71
2021/07/06 13:32:08;;;;;;;5.70;1.35;;;;;;;;;;5036653;28;20068;-71
2021/07/06 13:34:34;;;;;;;4.60;0.70;;;;;;;;;;5049999;28;20170;-71
2021/07/06 13:37:00;;;;;;;7.78;0.70;;;;;;;;;;5040375;28;20036;-71
2021/07/06 13:39:26;;;;;;;3.65;0.40;;;;;;;;;;5035772;28;20037;-71
2021/07/06 13:41:53;;;;;;;2.00;0.40;;;;;;;;;;5043259;28;20072;-71
2021/07/06 13:44:19;;;;;;;5.50;0.65;;;;;;;;;;5041453;28;20377;-72
2021/07/06 13:46:45;;;;;;;6.45;0.60;;;;;;;;;;5039044;28;20444;-72
2021/07/06 13:49:11;;;;;;;4.65;0.90;;;;;;;;;;5029417;28;20048;-72
2021/07/06 13:51:38;;;;;;;6.82;0.60;;;;;;;;;;5026359;28;20059;-72
2021/07/06 13:54:06;;;;;;;6.38;0.68;;;;;;;;;;5030649;28;20077;-74
2021/07/06 13:56:33;;;;;;;7.22;0.50;;;;;;;;;;5025335;28;20128;-75
2021/07/06 13:58:59;;;;;;;4.05;0.70;;;;;;;;;;5018905;28;20125;-74
2021/07/06 14:01:25;;;;;;;5.43;0.60;;;;;;;;;;5038852;28;20488;-74
2021/07/06 14:03:51;;;;;;;2.38;0.45;;;;;;;;;;5032515;28;20108;-74
2021/07/06 14:06:17;;;;;;;4.22;0.85;;;;;;;;;;5046634;28;20094;-74
2021/07/06 14:08:47;;;;;;;5.07;0.63;;;;;;;;;;5039316;28;20036;-74
2021/07/06 14:11:14;;;;;;;5.18;0.65;;;;;;;;;;5040747;28;20049;-74
2021/07/06 14:13:41;;;;;;;4.55;0.57;;;;;;;;;;5039435;28;20069;-74
2021/07/06 14:16:07;;;;;;;2.63;0.65;;;;;;;;;;5036094;28;20045;-73
2021/07/06 14:18:34;;;;;;;3.22;0.50;;;;;;;;;;5042482;28;20439;-73
2021/07/06 14:21:00;;;;;;;4.50;0.60;;;;;;;;;;5032395;28;20501;-73
2021/07/06 14:23:26;;;;;;;4.38;0.52;;;;;;;;;;5034415;28;20052;-73
2021/07/06 14:25:55;;;;;;;4.75;0.75;;;;;;;;;;5021829;28;20064;-72
2021/07/06 14:28:21;;;;;;;2.55;0.30;;;;;;;;;;5042517;28;20037;-73
2021/07/06 14:30:47;;;;;;;5.47;0.80;;;;;;;;;;5035964;28;20049;-70
2021/07/06 14:33:13;;;;;;;5.53;0.60;;;;;;;;;;5028436;28;20121;-69
2021/07/06 14:35:40;;;;;;;3.58;0.50;;;;;;;;;;5037383;28;20063;-70
2021/07/06 14:38:06;;;;;;;2.03;0.40;;;;;;;;;;5047789;28;20069;-70
2021/07/06 14:40:33;;;;;;;4.05;0.40;;;;;;;;;;5043213;28;20032;-70
2021/07/06 14:43:00;;;;;;;4.50;0.50;;;;;;;;;;5037613;28;20044;-70